sensor_id;sensor_type;location;lat;lon;timestamp;temperature;humidity
49579;DHT22;35483;50.828;3.228;2022-12-07T00:01:08;6.00;99.90
49579;DHT22;35483;50.828;3.228;2022-12-07T00:03:34;6.10;99.90
49579;DHT22;35483;50.828;3.228;2022-12-07T00:06:01;6.00;99.90
49579;DHT22;35483;50.828;3.228;2022-12-07T00:08:27;6.00;99.90
49579;DHT22;35483;50.828;3.228;2022-12-07T00:10:53;5.90;99.90
49579;DHT22;35483;50.828;3.228;2022-12-07T00:13:19;5.90;99.90
49579;DHT22;35483;50.828;3.228;2022-12-07T00:15:44;5.80;99.90
49579;DHT22;35483;50.828;3.228;2022-12-07T00:18:10;5.80;99.90
49579;DHT22;35483;50.828;3.228;2022-12-07T00:20:36;5.80;99.90
49579;DHT22;35483;50.828;3.228;2022-12-07T00:23:02;5.80;99.90
49579;DHT22;35483;50.828;3.228;2022-12-07T00:25:27;5.80;99.90
49579;DHT22;35483;50.828;3.228;2022-12-07T00:27:53;5.90;99.90
49579;DHT22;35483;50.828;3.228;2022-12-07T00:30:23;5.90;99.90
49579;DHT22;35483;50.828;3.228;2022-12-07T00:32:49;5.90;99.90
49579;DHT22;35483;50.828;3.228;2022-12-07T00:35:15;5.90;99.90
49579;DHT22;35483;50.828;3.228;2022-12-07T00:37:41;6.00;99.90
49579;DHT22;35483;50.828;3.228;2022-12-07T00:40:07;6.10;99.90
49579;DHT22;35483;50.828;3.228;2022-12-07T00:42:33;6.20;99.90
49579;DHT22;35483;50.828;3.228;2022-12-07T00:44:58;6.20;99.90
49579;DHT22;35483;50.828;3.228;2022-12-07T00:47:24;6.30;99.90
49579;DHT22;35483;50.828;3.228;2022-12-07T00:49:50;6.30;99.90
49579;DHT22;35483;50.828;3.228;2022-12-07T00:52:15;6.30;99.90
49579;DHT22;35483;50.828;3.228;2022-12-07T00:54:41;6.30;99.90
49579;DHT22;35483;50.828;3.228;2022-12-07T00:57:07;6.30;99.90
49579;DHT22;35483;50.828;3.228;2022-12-07T00:59:32;6.30;99.90
49579;DHT22;35483;50.828;3.228;2022-12-07T01:01:58;6.30;99.90
49579;DHT22;35483;50.828;3.228;2022-12-07T01:04:24;6.30;99.90
49579;DHT22;35483;50.828;3.228;2022-12-07T01:06:49;6.30;99.90
49579;DHT22;35483;50.828;3.228;2022-12-07T01:09:15;6.30;99.90
49579;DHT22;35483;50.828;3.228;2022-12-07T01:11:42;6.30;99.90
49579;DHT22;35483;50.828;3.228;2022-12-07T01:14:08;6.40;99.90
49579;DHT22;35483;50.828;3.228;2022-12-07T01:16:34;6.30;99.90
49579;DHT22;35483;50.828;3.228;2022-12-07T01:19:01;6.30;99.90
49579;DHT22;35483;50.828;3.228;2022-12-07T01:21:32;6.30;99.90
49579;DHT22;35483;50.828;3.228;2022-12-07T01:24:06;6.20;99.90
49579;DHT22;35483;50.828;3.228;2022-12-07T01:26:32;6.10;99.90
49579;DHT22;35483;50.828;3.228;2022-12-07T01:28:58;6.10;99.90
49579;DHT22;35483;50.828;3.228;2022-12-07T01:31:27;6.00;99.90
49579;DHT22;35483;50.828;3.228;2022-12-07T01:33:56;6.00;99.90
49579;DHT22;35483;50.828;3.228;2022-12-07T01:36:30;6.00;99.90
49579;DHT22;35483;50.828;3.228;2022-12-07T01:38:58;6.10;99.90
49579;DHT22;35483;50.828;3.228;2022-12-07T01:41:26;6.10;99.90
49579;DHT22;35483;50.828;3.228;2022-12-07T01:44:26;6.20;99.90
49579;DHT22;35483;50.828;3.228;2022-12-07T01:46:53;6.20;99.90
49579;DHT22;35483;50.828;3.228;2022-12-07T01:49:31;6.20;99.90
49579;DHT22;35483;50.828;3.228;2022-12-07T01:52:18;6.20;99.90
49579;DHT22;35483;50.828;3.228;2022-12-07T01:54:46;6.30;99.90
49579;DHT22;35483;50.828;3.228;2022-12-07T01:57:14;6.30;99.90
49579;DHT22;35483;50.828;3.228;2022-12-07T01:59:41;6.30;99.90
49579;DHT22;35483;50.828;3.228;2022-12-07T02:02:14;6.30;99.90
49579;DHT22;35483;50.828;3.228;2022-12-07T02:04:43;6.40;99.90
49579;DHT22;35483;50.828;3.228;2022-12-07T02:07:09;6.30;99.90
49579;DHT22;35483;50.828;3.228;2022-12-07T02:09:35;6.30;99.90
49579;DHT22;35483;50.828;3.228;2022-12-07T02:12:01;6.30;99.90
49579;DHT22;35483;50.828;3.228;2022-12-07T02:14:27;6.30;99.90
49579;DHT22;35483;50.828;3.228;2022-12-07T02:25:52;6.20;99.90
49579;DHT22;35483;50.828;3.228;2022-12-07T02:28:34;6.10;99.90
49579;DHT22;35483;50.828;3.228;2022-12-07T02:31:10;6.00;99.90
49579;DHT22;35483;50.828;3.228;2022-12-07T02:33:45;6.00;99.90
49579;DHT22;35483;50.828;3.228;2022-12-07T02:36:21;6.10;99.90
49579;DHT22;35483;50.828;3.228;2022-12-07T02:38:58;6.10;99.90
49579;DHT22;35483;50.828;3.228;2022-12-07T02:41:36;6.20;99.90
49579;DHT22;35483;50.828;3.228;2022-12-07T02:44:10;6.30;99.90
49579;DHT22;35483;50.828;3.228;2022-12-07T02:46:57;6.30;99.90
49579;DHT22;35483;50.828;3.228;2022-12-07T02:49:24;6.40;99.90
49579;DHT22;35483;50.828;3.228;2022-12-07T02:51:52;6.40;99.90
49579;DHT22;35483;50.828;3.228;2022-12-07T02:54:19;6.40;99.90
49579;DHT22;35483;50.828;3.228;2022-12-07T02:56:57;6.40;99.90
49579;DHT22;35483;50.828;3.228;2022-12-07T03:06:07;6.40;99.90
49579;DHT22;35483;50.828;3.228;2022-12-07T03:08:15;6.30;99.90
49579;DHT22;35483;50.828;3.228;2022-12-07T03:10:58;6.30;99.90
49579;DHT22;35483;50.828;3.228;2022-12-07T03:16:14;6.10;99.90
49579;DHT22;35483;50.828;3.228;2022-12-07T03:18:57;6.00;99.90
49579;DHT22;35483;50.828;3.228;2022-12-07T03:21:27;5.90;99.90
49579;DHT22;35483;50.828;3.228;2022-12-07T03:23:56;5.80;99.90
49579;DHT22;35483;50.828;3.228;2022-12-07T03:26:34;5.70;99.90
49579;DHT22;35483;50.828;3.228;2022-12-07T03:29:07;5.60;99.90
49579;DHT22;35483;50.828;3.228;2022-12-07T03:31:42;5.60;99.90
49579;DHT22;35483;50.828;3.228;2022-12-07T03:34:28;5.60;99.90
49579;DHT22;35483;50.828;3.228;2022-12-07T03:37:08;5.50;99.90
49579;DHT22;35483;50.828;3.228;2022-12-07T03:42:26;5.60;99.90
49579;DHT22;35483;50.828;3.228;2022-12-07T03:44:51;5.50;99.90
49579;DHT22;35483;50.828;3.228;2022-12-07T03:47:27;5.60;99.90
49579;DHT22;35483;50.828;3.228;2022-12-07T03:50:05;5.70;99.90
49579;DHT22;35483;50.828;3.228;2022-12-07T03:55:34;5.80;99.90
49579;DHT22;35483;50.828;3.228;2022-12-07T03:58:09;5.90;99.90
49579;DHT22;35483;50.828;3.228;2022-12-07T04:00:36;5.90;99.90
49579;DHT22;35483;50.828;3.228;2022-12-07T04:03:02;5.90;99.90
49579;DHT22;35483;50.828;3.228;2022-12-07T04:05:28;6.00;99.90
49579;DHT22;35483;50.828;3.228;2022-12-07T04:07:54;6.00;99.90
49579;DHT22;35483;50.828;3.228;2022-12-07T04:10:20;6.10;99.90
49579;DHT22;35483;50.828;3.228;2022-12-07T04:12:46;6.20;99.90
49579;DHT22;35483;50.828;3.228;2022-12-07T04:15:12;6.20;99.90
49579;DHT22;35483;50.828;3.228;2022-12-07T04:17:37;6.20;99.90
49579;DHT22;35483;50.828;3.228;2022-12-07T04:20:04;6.10;99.90
49579;DHT22;35483;50.828;3.228;2022-12-07T04:22:30;6.10;99.90
49579;DHT22;35483;50.828;3.228;2022-12-07T04:24:56;6.00;99.90
49579;DHT22;35483;50.828;3.228;2022-12-07T04:27:21;6.00;99.90
49579;DHT22;35483;50.828;3.228;2022-12-07T04:29:47;5.90;99.90
49579;DHT22;35483;50.828;3.228;2022-12-07T04:32:13;5.90;99.90
49579;DHT22;35483;50.828;3.228;2022-12-07T04:34:40;5.80;99.90
49579;DHT22;35483;50.828;3.228;2022-12-07T04:37:05;5.70;99.90
49579;DHT22;35483;50.828;3.228;2022-12-07T04:39:32;5.60;99.90
49579;DHT22;35483;50.828;3.228;2022-12-07T04:41:58;5.60;99.90
49579;DHT22;35483;50.828;3.228;2022-12-07T04:44:25;5.60;99.90
49579;DHT22;35483;50.828;3.228;2022-12-07T04:46:52;5.60;99.90
49579;DHT22;35483;50.828;3.228;2022-12-07T04:49:18;5.60;99.90
49579;DHT22;35483;50.828;3.228;2022-12-07T04:51:45;5.60;99.90
49579;DHT22;35483;50.828;3.228;2022-12-07T04:54:12;5.70;99.90
49579;DHT22;35483;50.828;3.228;2022-12-07T04:56:39;5.70;99.90
49579;DHT22;35483;50.828;3.228;2022-12-07T04:59:05;5.80;99.90
49579;DHT22;35483;50.828;3.228;2022-12-07T05:01:31;5.80;99.90
49579;DHT22;35483;50.828;3.228;2022-12-07T05:03:57;5.80;99.90
49579;DHT22;35483;50.828;3.228;2022-12-07T05:06:22;5.90;99.90
49579;DHT22;35483;50.828;3.228;2022-12-07T05:08:48;5.90;99.90
49579;DHT22;35483;50.828;3.228;2022-12-07T05:11:14;6.00;99.90
49579;DHT22;35483;50.828;3.228;2022-12-07T05:14:01;6.00;99.90
49579;DHT22;35483;50.828;3.228;2022-12-07T05:16:27;6.10;99.90
49579;DHT22;35483;50.828;3.228;2022-12-07T05:18:53;6.10;99.90
49579;DHT22;35483;50.828;3.228;2022-12-07T05:21:19;6.10;99.90
49579;DHT22;35483;50.828;3.228;2022-12-07T05:23:45;6.00;99.90
49579;DHT22;35483;50.828;3.228;2022-12-07T05:26:11;6.00;99.90
49579;DHT22;35483;50.828;3.228;2022-12-07T05:28:37;5.90;99.90
49579;DHT22;35483;50.828;3.228;2022-12-07T05:31:02;5.80;99.90
49579;DHT22;35483;50.828;3.228;2022-12-07T05:33:28;5.70;99.90
49579;DHT22;35483;50.828;3.228;2022-12-07T05:35:54;5.60;99.90
49579;DHT22;35483;50.828;3.228;2022-12-07T05:38:20;5.50;99.90
49579;DHT22;35483;50.828;3.228;2022-12-07T05:40:45;5.40;99.90
49579;DHT22;35483;50.828;3.228;2022-12-07T05:43:11;5.30;99.90
49579;DHT22;35483;50.828;3.228;2022-12-07T05:45:37;5.30;99.90
49579;DHT22;35483;50.828;3.228;2022-12-07T05:48:02;5.20;99.90
49579;DHT22;35483;50.828;3.228;2022-12-07T05:50:28;5.10;99.90
49579;DHT22;35483;50.828;3.228;2022-12-07T05:52:54;5.10;99.90
49579;DHT22;35483;50.828;3.228;2022-12-07T05:55:20;5.00;99.90
49579;DHT22;35483;50.828;3.228;2022-12-07T05:57:45;5.00;99.90
49579;DHT22;35483;50.828;3.228;2022-12-07T06:00:32;5.00;99.90
49579;DHT22;35483;50.828;3.228;2022-12-07T06:02:57;4.90;99.90
49579;DHT22;35483;50.828;3.228;2022-12-07T06:05:23;4.90;99.90
49579;DHT22;35483;50.828;3.228;2022-12-07T06:07:49;4.90;99.90
49579;DHT22;35483;50.828;3.228;2022-12-07T06:10:15;4.90;99.90
49579;DHT22;35483;50.828;3.228;2022-12-07T06:12:40;4.90;99.90
49579;DHT22;35483;50.828;3.228;2022-12-07T06:15:09;4.90;99.90
49579;DHT22;35483;50.828;3.228;2022-12-07T06:17:36;4.90;99.90
49579;DHT22;35483;50.828;3.228;2022-12-07T06:20:03;5.00;99.90
49579;DHT22;35483;50.828;3.228;2022-12-07T06:22:28;5.00;99.90
49579;DHT22;35483;50.828;3.228;2022-12-07T06:24:54;5.10;99.90
49579;DHT22;35483;50.828;3.228;2022-12-07T06:27:20;5.20;99.90
49579;DHT22;35483;50.828;3.228;2022-12-07T06:29:45;5.20;99.90
49579;DHT22;35483;50.828;3.228;2022-12-07T06:32:11;5.30;99.90
49579;DHT22;35483;50.828;3.228;2022-12-07T06:34:37;5.30;99.90
49579;DHT22;35483;50.828;3.228;2022-12-07T06:37:03;5.30;99.90
49579;DHT22;35483;50.828;3.228;2022-12-07T06:39:29;5.30;99.90
49579;DHT22;35483;50.828;3.228;2022-12-07T06:41:56;5.30;99.90
49579;DHT22;35483;50.828;3.228;2022-12-07T06:44:23;5.30;99.90
49579;DHT22;35483;50.828;3.228;2022-12-07T06:46:49;5.30;99.90
49579;DHT22;35483;50.828;3.228;2022-12-07T06:49:15;5.40;99.90
49579;DHT22;35483;50.828;3.228;2022-12-07T06:51:42;5.30;99.90
49579;DHT22;35483;50.828;3.228;2022-12-07T06:54:12;5.30;99.90
49579;DHT22;35483;50.828;3.228;2022-12-07T06:56:38;5.30;99.90
49579;DHT22;35483;50.828;3.228;2022-12-07T06:59:05;5.20;99.90
49579;DHT22;35483;50.828;3.228;2022-12-07T07:01:32;5.20;99.90
49579;DHT22;35483;50.828;3.228;2022-12-07T07:03:58;5.20;99.90
49579;DHT22;35483;50.828;3.228;2022-12-07T07:06:24;5.10;99.90
49579;DHT22;35483;50.828;3.228;2022-12-07T07:08:50;5.10;99.90
49579;DHT22;35483;50.828;3.228;2022-12-07T07:11:16;5.00;99.90
49579;DHT22;35483;50.828;3.228;2022-12-07T07:13:41;5.00;99.90
49579;DHT22;35483;50.828;3.228;2022-12-07T07:16:08;5.00;99.90
49579;DHT22;35483;50.828;3.228;2022-12-07T07:18:34;5.00;99.90
49579;DHT22;35483;50.828;3.228;2022-12-07T07:21:00;5.10;99.90
49579;DHT22;35483;50.828;3.228;2022-12-07T07:23:26;5.10;99.90
49579;DHT22;35483;50.828;3.228;2022-12-07T07:25:51;5.10;99.90
49579;DHT22;35483;50.828;3.228;2022-12-07T07:28:17;5.20;99.90
49579;DHT22;35483;50.828;3.228;2022-12-07T07:30:43;5.20;99.90
49579;DHT22;35483;50.828;3.228;2022-12-07T07:33:10;5.20;99.90
49579;DHT22;35483;50.828;3.228;2022-12-07T07:35:36;5.20;99.90
49579;DHT22;35483;50.828;3.228;2022-12-07T07:38:02;5.30;99.90
49579;DHT22;35483;50.828;3.228;2022-12-07T07:40:29;5.30;99.90
49579;DHT22;35483;50.828;3.228;2022-12-07T07:42:55;5.30;99.90
49579;DHT22;35483;50.828;3.228;2022-12-07T07:45:22;5.30;99.90
49579;DHT22;35483;50.828;3.228;2022-12-07T07:47:49;5.40;99.90
49579;DHT22;35483;50.828;3.228;2022-12-07T07:50:15;5.40;99.90
49579;DHT22;35483;50.828;3.228;2022-12-07T07:52:41;5.40;99.90
49579;DHT22;35483;50.828;3.228;2022-12-07T07:55:07;5.40;99.90
49579;DHT22;35483;50.828;3.228;2022-12-07T07:57:34;5.40;99.90
49579;DHT22;35483;50.828;3.228;2022-12-07T08:00:00;5.30;99.90
49579;DHT22;35483;50.828;3.228;2022-12-07T08:02:26;5.40;99.90
49579;DHT22;35483;50.828;3.228;2022-12-07T08:04:54;5.40;99.90
49579;DHT22;35483;50.828;3.228;2022-12-07T08:07:20;5.50;99.90
49579;DHT22;35483;50.828;3.228;2022-12-07T08:09:46;5.60;99.90
49579;DHT22;35483;50.828;3.228;2022-12-07T08:12:12;5.70;99.90
49579;DHT22;35483;50.828;3.228;2022-12-07T08:14:38;5.80;99.90
49579;DHT22;35483;50.828;3.228;2022-12-07T08:17:03;5.90;99.90
49579;DHT22;35483;50.828;3.228;2022-12-07T08:19:29;6.00;99.90
49579;DHT22;35483;50.828;3.228;2022-12-07T08:21:55;6.10;99.90
49579;DHT22;35483;50.828;3.228;2022-12-07T08:24:22;6.10;99.90
49579;DHT22;35483;50.828;3.228;2022-12-07T08:26:47;6.20;99.90
49579;DHT22;35483;50.828;3.228;2022-12-07T08:29:15;6.30;99.90
49579;DHT22;35483;50.828;3.228;2022-12-07T08:31:40;6.40;99.90
49579;DHT22;35483;50.828;3.228;2022-12-07T08:34:06;6.40;99.90
49579;DHT22;35483;50.828;3.228;2022-12-07T08:36:32;6.50;99.90
49579;DHT22;35483;50.828;3.228;2022-12-07T08:38:57;6.50;99.90
49579;DHT22;35483;50.828;3.228;2022-12-07T08:41:23;6.50;99.90
49579;DHT22;35483;50.828;3.228;2022-12-07T08:43:51;6.60;99.90
49579;DHT22;35483;50.828;3.228;2022-12-07T08:46:24;6.60;99.90
49579;DHT22;35483;50.828;3.228;2022-12-07T08:48:57;6.70;99.90
49579;DHT22;35483;50.828;3.228;2022-12-07T08:51:24;6.70;99.90
49579;DHT22;35483;50.828;3.228;2022-12-07T08:53:51;6.70;99.90
49579;DHT22;35483;50.828;3.228;2022-12-07T08:56:18;6.80;99.90
49579;DHT22;35483;50.828;3.228;2022-12-07T08:58:44;6.80;99.90
49579;DHT22;35483;50.828;3.228;2022-12-07T09:01:10;6.80;99.90
49579;DHT22;35483;50.828;3.228;2022-12-07T09:03:36;6.80;99.90
49579;DHT22;35483;50.828;3.228;2022-12-07T09:06:02;6.80;99.90
49579;DHT22;35483;50.828;3.228;2022-12-07T09:08:33;6.90;99.90
49579;DHT22;35483;50.828;3.228;2022-12-07T09:10:59;6.90;99.90
49579;DHT22;35483;50.828;3.228;2022-12-07T09:13:25;7.00;99.90
49579;DHT22;35483;50.828;3.228;2022-12-07T09:15:51;7.00;99.90
49579;DHT22;35483;50.828;3.228;2022-12-07T09:18:17;7.10;99.90
49579;DHT22;35483;50.828;3.228;2022-12-07T09:20:42;7.10;99.90
49579;DHT22;35483;50.828;3.228;2022-12-07T09:23:08;7.20;99.90
49579;DHT22;35483;50.828;3.228;2022-12-07T09:25:34;7.20;99.90
49579;DHT22;35483;50.828;3.228;2022-12-07T09:28:00;7.20;99.90
49579;DHT22;35483;50.828;3.228;2022-12-07T09:30:27;7.30;99.90
49579;DHT22;35483;50.828;3.228;2022-12-07T09:32:54;7.30;99.90
49579;DHT22;35483;50.828;3.228;2022-12-07T09:35:20;7.30;99.90
49579;DHT22;35483;50.828;3.228;2022-12-07T09:37:46;7.30;99.90
49579;DHT22;35483;50.828;3.228;2022-12-07T09:40:12;7.30;99.90
49579;DHT22;35483;50.828;3.228;2022-12-07T09:42:41;7.30;99.90
49579;DHT22;35483;50.828;3.228;2022-12-07T09:45:21;7.30;99.90
49579;DHT22;35483;50.828;3.228;2022-12-07T09:47:47;7.30;99.90
49579;DHT22;35483;50.828;3.228;2022-12-07T09:50:16;7.30;99.90
49579;DHT22;35483;50.828;3.228;2022-12-07T09:52:44;7.20;99.90
49579;DHT22;35483;50.828;3.228;2022-12-07T09:55:23;7.20;99.90
49579;DHT22;35483;50.828;3.228;2022-12-07T09:57:50;7.20;99.90
49579;DHT22;35483;50.828;3.228;2022-12-07T10:00:19;7.10;99.90
49579;DHT22;35483;50.828;3.228;2022-12-07T10:02:57;7.00;99.90
49579;DHT22;35483;50.828;3.228;2022-12-07T10:05:30;6.90;99.90
49579;DHT22;35483;50.828;3.228;2022-12-07T10:07:57;6.90;99.90
49579;DHT22;35483;50.828;3.228;2022-12-07T10:10:27;6.70;99.90
49579;DHT22;35483;50.828;3.228;2022-12-07T10:13:07;6.70;99.90
49579;DHT22;35483;50.828;3.228;2022-12-07T10:21:08;6.50;99.90
49579;DHT22;35483;50.828;3.228;2022-12-07T10:23:36;6.40;99.90
49579;DHT22;35483;50.828;3.228;2022-12-07T10:26:27;6.40;99.90
49579;DHT22;35483;50.828;3.228;2022-12-07T10:28:54;6.60;99.90
49579;DHT22;35483;50.828;3.228;2022-12-07T10:31:22;6.60;99.90
49579;DHT22;35483;50.828;3.228;2022-12-07T10:33:56;6.70;99.90
49579;DHT22;35483;50.828;3.228;2022-12-07T10:39:15;6.90;99.90
49579;DHT22;35483;50.828;3.228;2022-12-07T10:42:00;7.00;99.90
49579;DHT22;35483;50.828;3.228;2022-12-07T10:44:31;7.20;99.90
49579;DHT22;35483;50.828;3.228;2022-12-07T10:47:10;7.40;99.90
49579;DHT22;35483;50.828;3.228;2022-12-07T10:49:46;7.60;99.90
49579;DHT22;35483;50.828;3.228;2022-12-07T11:03:43;8.00;99.90
49579;DHT22;35483;50.828;3.228;2022-12-07T11:06:32;8.00;99.90
49579;DHT22;35483;50.828;3.228;2022-12-07T11:09:29;8.10;99.90
49579;DHT22;35483;50.828;3.228;2022-12-07T11:15:02;8.30;99.90
49579;DHT22;35483;50.828;3.228;2022-12-07T11:17:56;8.50;99.90
49579;DHT22;35483;50.828;3.228;2022-12-07T11:23:16;8.60;99.90
49579;DHT22;35483;50.828;3.228;2022-12-07T11:31:51;8.70;99.90
49579;DHT22;35483;50.828;3.228;2022-12-07T11:34:39;8.80;99.90
49579;DHT22;35483;50.828;3.228;2022-12-07T11:37:17;8.90;99.90
49579;DHT22;35483;50.828;3.228;2022-12-07T11:40:05;8.90;99.90
49579;DHT22;35483;50.828;3.228;2022-12-07T11:42:38;8.90;99.90
49579;DHT22;35483;50.828;3.228;2022-12-07T11:45:42;8.80;99.90
49579;DHT22;35483;50.828;3.228;2022-12-07T11:48:17;8.70;99.90
49579;DHT22;35483;50.828;3.228;2022-12-07T11:50:57;8.70;99.90
49579;DHT22;35483;50.828;3.228;2022-12-07T11:53:35;8.70;99.90
49579;DHT22;35483;50.828;3.228;2022-12-07T11:56:14;8.70;99.90
49579;DHT22;35483;50.828;3.228;2022-12-07T11:59:17;8.80;99.90
49579;DHT22;35483;50.828;3.228;2022-12-07T12:01:53;8.90;99.90
49579;DHT22;35483;50.828;3.228;2022-12-07T12:04:34;8.90;99.90
49579;DHT22;35483;50.828;3.228;2022-12-07T12:07:07;9.00;99.90
49579;DHT22;35483;50.828;3.228;2022-12-07T12:09:55;9.00;99.90
49579;DHT22;35483;50.828;3.228;2022-12-07T12:15:38;8.90;99.90
49579;DHT22;35483;50.828;3.228;2022-12-07T12:18:30;8.80;99.90
49579;DHT22;35483;50.828;3.228;2022-12-07T12:21:07;8.70;99.90
49579;DHT22;35483;50.828;3.228;2022-12-07T12:26:05;8.80;99.90
49579;DHT22;35483;50.828;3.228;2022-12-07T12:28:42;8.80;99.90
49579;DHT22;35483;50.828;3.228;2022-12-07T12:33:55;8.70;99.90
49579;DHT22;35483;50.828;3.228;2022-12-07T12:47:03;8.60;99.90
49579;DHT22;35483;50.828;3.228;2022-12-07T12:49:39;8.50;99.90
49579;DHT22;35483;50.828;3.228;2022-12-07T12:55:11;8.30;99.90
49579;DHT22;35483;50.828;3.228;2022-12-07T12:57:37;8.40;99.90
49579;DHT22;35483;50.828;3.228;2022-12-07T13:02:50;8.40;99.90
49579;DHT22;35483;50.828;3.228;2022-12-07T13:29:16;8.30;99.90
49579;DHT22;35483;50.828;3.228;2022-12-07T13:31:51;8.30;99.90
49579;DHT22;35483;50.828;3.228;2022-12-07T13:34:35;8.20;99.90
49579;DHT22;35483;50.828;3.228;2022-12-07T13:37:08;8.10;99.90
49579;DHT22;35483;50.828;3.228;2022-12-07T13:39:49;8.10;99.90
49579;DHT22;35483;50.828;3.228;2022-12-07T13:42:24;8.10;99.90
49579;DHT22;35483;50.828;3.228;2022-12-07T13:44:51;8.10;99.90
49579;DHT22;35483;50.828;3.228;2022-12-07T13:47:43;8.00;99.90
49579;DHT22;35483;50.828;3.228;2022-12-07T13:50:25;8.00;99.90
49579;DHT22;35483;50.828;3.228;2022-12-07T13:52:56;8.00;99.90
49579;DHT22;35483;50.828;3.228;2022-12-07T13:55:22;7.90;99.90
49579;DHT22;35483;50.828;3.228;2022-12-07T13:57:51;8.00;99.90
49579;DHT22;35483;50.828;3.228;2022-12-07T14:00:26;8.10;99.90
49579;DHT22;35483;50.828;3.228;2022-12-07T14:02:59;8.10;99.90
49579;DHT22;35483;50.828;3.228;2022-12-07T14:05:28;8.20;99.90
49579;DHT22;35483;50.828;3.228;2022-12-07T14:07:59;8.30;99.90
49579;DHT22;35483;50.828;3.228;2022-12-07T14:10:31;8.40;99.90
49579;DHT22;35483;50.828;3.228;2022-12-07T14:12:59;8.50;99.90
49579;DHT22;35483;50.828;3.228;2022-12-07T14:15:30;8.60;99.90
49579;DHT22;35483;50.828;3.228;2022-12-07T14:17:58;8.70;99.90
49579;DHT22;35483;50.828;3.228;2022-12-07T14:20:38;8.70;99.90
49579;DHT22;35483;50.828;3.228;2022-12-07T14:23:19;8.60;99.90
49579;DHT22;35483;50.828;3.228;2022-12-07T14:25:51;8.60;99.90
49579;DHT22;35483;50.828;3.228;2022-12-07T14:28:30;8.60;99.90
49579;DHT22;35483;50.828;3.228;2022-12-07T14:30:57;8.30;99.90
49579;DHT22;35483;50.828;3.228;2022-12-07T14:33:24;8.10;99.90
49579;DHT22;35483;50.828;3.228;2022-12-07T14:35:50;7.70;99.90
49579;DHT22;35483;50.828;3.228;2022-12-07T14:38:20;7.40;99.90
49579;DHT22;35483;50.828;3.228;2022-12-07T14:40:46;7.40;99.90
49579;DHT22;35483;50.828;3.228;2022-12-07T14:43:14;7.30;99.90
49579;DHT22;35483;50.828;3.228;2022-12-07T14:45:40;7.30;99.90
49579;DHT22;35483;50.828;3.228;2022-12-07T14:48:10;7.30;99.90
49579;DHT22;35483;50.828;3.228;2022-12-07T14:50:40;7.20;99.90
49579;DHT22;35483;50.828;3.228;2022-12-07T14:53:14;7.20;99.90
49579;DHT22;35483;50.828;3.228;2022-12-07T14:55:40;7.30;99.90
49579;DHT22;35483;50.828;3.228;2022-12-07T14:58:07;7.30;99.90
49579;DHT22;35483;50.828;3.228;2022-12-07T15:00:37;7.30;99.90
49579;DHT22;35483;50.828;3.228;2022-12-07T15:03:03;7.40;99.90
49579;DHT22;35483;50.828;3.228;2022-12-07T15:05:28;7.40;99.90
49579;DHT22;35483;50.828;3.228;2022-12-07T15:07:54;7.40;99.90
49579;DHT22;35483;50.828;3.228;2022-12-07T15:10:28;7.50;99.90
49579;DHT22;35483;50.828;3.228;2022-12-07T15:12:59;7.50;99.90
49579;DHT22;35483;50.828;3.228;2022-12-07T15:15:46;7.50;99.90
49579;DHT22;35483;50.828;3.228;2022-12-07T15:18:12;7.50;99.90
49579;DHT22;35483;50.828;3.228;2022-12-07T15:20:38;7.60;99.90
49579;DHT22;35483;50.828;3.228;2022-12-07T15:23:04;7.60;99.90
49579;DHT22;35483;50.828;3.228;2022-12-07T15:25:30;7.60;99.90
49579;DHT22;35483;50.828;3.228;2022-12-07T15:27:56;7.60;99.90
49579;DHT22;35483;50.828;3.228;2022-12-07T15:30:21;7.60;99.90
49579;DHT22;35483;50.828;3.228;2022-12-07T15:32:51;7.50;99.90
49579;DHT22;35483;50.828;3.228;2022-12-07T15:35:18;7.50;99.90
49579;DHT22;35483;50.828;3.228;2022-12-07T15:37:43;7.40;99.90
49579;DHT22;35483;50.828;3.228;2022-12-07T15:40:10;7.40;99.90
49579;DHT22;35483;50.828;3.228;2022-12-07T15:42:36;7.40;99.90
49579;DHT22;35483;50.828;3.228;2022-12-07T15:45:03;7.30;99.90
49579;DHT22;35483;50.828;3.228;2022-12-07T15:47:37;7.40;99.90
49579;DHT22;35483;50.828;3.228;2022-12-07T15:50:05;7.30;99.90
49579;DHT22;35483;50.828;3.228;2022-12-07T15:52:31;7.30;99.90
49579;DHT22;35483;50.828;3.228;2022-12-07T15:54:57;7.40;99.90
49579;DHT22;35483;50.828;3.228;2022-12-07T15:57:26;7.40;99.90
49579;DHT22;35483;50.828;3.228;2022-12-07T15:59:51;7.40;99.90
49579;DHT22;35483;50.828;3.228;2022-12-07T16:02:17;7.40;99.90
49579;DHT22;35483;50.828;3.228;2022-12-07T16:04:43;7.40;99.90
49579;DHT22;35483;50.828;3.228;2022-12-07T16:07:09;7.40;99.90
49579;DHT22;35483;50.828;3.228;2022-12-07T16:09:37;7.40;99.90
49579;DHT22;35483;50.828;3.228;2022-12-07T16:12:03;7.40;99.90
49579;DHT22;35483;50.828;3.228;2022-12-07T16:14:29;7.40;99.90
49579;DHT22;35483;50.828;3.228;2022-12-07T16:16:55;7.40;99.90
49579;DHT22;35483;50.828;3.228;2022-12-07T16:19:20;7.40;99.90
49579;DHT22;35483;50.828;3.228;2022-12-07T16:21:46;7.40;99.90
49579;DHT22;35483;50.828;3.228;2022-12-07T16:24:12;7.40;99.90
49579;DHT22;35483;50.828;3.228;2022-12-07T16:26:40;7.40;99.90
49579;DHT22;35483;50.828;3.228;2022-12-07T16:29:06;7.50;99.90
49579;DHT22;35483;50.828;3.228;2022-12-07T16:31:31;7.40;99.90
49579;DHT22;35483;50.828;3.228;2022-12-07T16:33:58;7.50;99.90
49579;DHT22;35483;50.828;3.228;2022-12-07T16:36:24;7.50;99.90
49579;DHT22;35483;50.828;3.228;2022-12-07T16:38:51;7.50;99.90
49579;DHT22;35483;50.828;3.228;2022-12-07T16:41:17;7.50;99.90
49579;DHT22;35483;50.828;3.228;2022-12-07T16:43:43;7.50;99.90
49579;DHT22;35483;50.828;3.228;2022-12-07T16:46:09;7.50;99.90
49579;DHT22;35483;50.828;3.228;2022-12-07T16:48:37;7.50;99.90
49579;DHT22;35483;50.828;3.228;2022-12-07T16:51:05;7.50;99.90
49579;DHT22;35483;50.828;3.228;2022-12-07T16:53:31;7.50;99.90
49579;DHT22;35483;50.828;3.228;2022-12-07T16:55:57;7.50;99.90
49579;DHT22;35483;50.828;3.228;2022-12-07T16:58:22;7.50;99.90
49579;DHT22;35483;50.828;3.228;2022-12-07T17:00:48;7.50;99.90
49579;DHT22;35483;50.828;3.228;2022-12-07T17:03:14;7.50;99.90
49579;DHT22;35483;50.828;3.228;2022-12-07T17:05:45;7.60;99.90
49579;DHT22;35483;50.828;3.228;2022-12-07T17:08:12;7.60;99.90
49579;DHT22;35483;50.828;3.228;2022-12-07T17:10:40;7.60;99.90
49579;DHT22;35483;50.828;3.228;2022-12-07T17:13:07;7.70;99.90
49579;DHT22;35483;50.828;3.228;2022-12-07T17:15:59;7.50;99.90
49579;DHT22;35483;50.828;3.228;2022-12-07T17:18:31;7.40;99.90
49579;DHT22;35483;50.828;3.228;2022-12-07T17:21:03;7.40;99.90
49579;DHT22;35483;50.828;3.228;2022-12-07T17:23:29;7.30;99.90
49579;DHT22;35483;50.828;3.228;2022-12-07T17:25:55;7.30;99.90
49579;DHT22;35483;50.828;3.228;2022-12-07T17:28:21;7.30;99.90
49579;DHT22;35483;50.828;3.228;2022-12-07T17:30:47;7.30;99.90
49579;DHT22;35483;50.828;3.228;2022-12-07T17:33:12;7.30;99.90
49579;DHT22;35483;50.828;3.228;2022-12-07T17:35:38;7.20;99.90
49579;DHT22;35483;50.828;3.228;2022-12-07T17:38:04;7.10;99.90
49579;DHT22;35483;50.828;3.228;2022-12-07T17:40:30;7.00;99.90
49579;DHT22;35483;50.828;3.228;2022-12-07T17:42:55;7.00;99.90